Annada, Missouri
Current Conditions -  °F | °C
As of 4:15 PM on Tuesday 21 Oct 2014 (Local Time) from KPPQ Reporting Station
Haze Haze  
Wind Chill: 64°   Ceiling: 700
Heat Index: 64°   Visibility: 1.2mi
Dew Point: 43°   Wind: 7mph
Humidity: 45%   Direction: 80°E
Pressure: 30.14"   Gusts: NA
Location:  39.26°N, 90.83°W
Report Text: KPPQ 212115Z AUTO 08006KT 1 1/4SM HZ VV007 18/06 A3014 RMK AO2 VIS 1/2V5 T01800060
Loading
Personal Weather Stations






























Interactive Weather Map
Tropical Storm Tracking
New forecast layout! Learn more

10-Day Weather Forecast

Advertisements
Track Severe Weather on mobile